sensor_id;sensor_type;location;lat;lon;timestamp;pressure;altitude;pressure_sealevel;temperature;humidity
39267;BME280;24967;51.154;13.812;2023-05-29T00:00:57;99772.69;;;13.02;60.38
39267;BME280;24967;51.154;13.812;2023-05-29T00:03:27;99771.69;;;13.03;60.25
39267;BME280;24967;51.154;13.812;2023-05-29T00:05:58;99768.69;;;12.98;60.47
39267;BME280;24967;51.154;13.812;2023-05-29T00:08:27;99767.84;;;12.98;60.51
39267;BME280;24967;51.154;13.812;2023-05-29T00:10:53;99772.16;;;12.91;60.18
39267;BME280;24967;51.154;13.812;2023-05-29T00:13:20;99767.94;;;12.80;59.93
39267;BME280;24967;51.154;13.812;2023-05-29T00:15:46;99763.06;;;12.75;60.29
39267;BME280;24967;51.154;13.812;2023-05-29T00:18:13;99767.56;;;12.75;60.17
39267;BME280;24967;51.154;13.812;2023-05-29T00:20:40;99764.06;;;12.74;60.22
39267;BME280;24967;51.154;13.812;2023-05-29T00:23:06;99757.06;;;12.73;59.95
39267;BME280;24967;51.154;13.812;2023-05-29T00:25:34;99761.31;;;12.58;60.01
39267;BME280;24967;51.154;13.812;2023-05-29T00:28:00;99765.81;;;12.57;59.85
39267;BME280;24967;51.154;13.812;2023-05-29T00:30:27;99765.28;;;12.54;60.05
39267;BME280;24967;51.154;13.812;2023-05-29T00:32:53;99765.91;;;12.48;59.84
39267;BME280;24967;51.154;13.812;2023-05-29T00:35:20;99769.59;;;12.47;60.14
39267;BME280;24967;51.154;13.812;2023-05-29T00:37:46;99765.09;;;12.47;60.14
39267;BME280;24967;51.154;13.812;2023-05-29T00:40:13;99763.72;;;12.43;60.18
39267;BME280;24967;51.154;13.812;2023-05-29T00:42:40;99759.50;;;12.32;60.03
39267;BME280;24967;51.154;13.812;2023-05-29T00:45:07;99756.56;;;12.18;60.29
39267;BME280;24967;51.154;13.812;2023-05-29T00:47:34;99758.00;;;12.12;60.25
39267;BME280;24967;51.154;13.812;2023-05-29T00:50:01;99755.50;;;12.10;60.50
39267;BME280;24967;51.154;13.812;2023-05-29T00:52:28;99764.16;;;12.12;60.12
39267;BME280;24967;51.154;13.812;2023-05-29T00:54:56;99753.81;;;12.09;60.31
39267;BME280;24967;51.154;13.812;2023-05-29T00:57:25;99751.94;;;12.02;59.97
39267;BME280;24967;51.154;13.812;2023-05-29T00:59:54;99755.75;;;11.99;59.86
39267;BME280;24967;51.154;13.812;2023-05-29T01:02:21;99755.69;;;11.91;60.08
39267;BME280;24967;51.154;13.812;2023-05-29T01:04:48;99753.50;;;11.86;60.30
39267;BME280;24967;51.154;13.812;2023-05-29T01:07:14;99757.69;;;11.79;60.41
39267;BME280;24967;51.154;13.812;2023-05-29T01:09:41;99749.34;;;11.74;60.90
39267;BME280;24967;51.154;13.812;2023-05-29T01:12:19;99751.94;;;11.66;61.03
39267;BME280;24967;51.154;13.812;2023-05-29T01:15:03;99758.56;;;11.62;61.28
39267;BME280;24967;51.154;13.812;2023-05-29T01:17:37;99760.75;;;11.66;61.32
39267;BME280;24967;51.154;13.812;2023-05-29T01:20:15;99759.69;;;11.59;61.34
39267;BME280;24967;51.154;13.812;2023-05-29T01:23:08;99765.47;;;11.55;61.24
39267;BME280;24967;51.154;13.812;2023-05-29T01:25:49;99758.47;;;11.54;61.38
39267;BME280;24967;51.154;13.812;2023-05-29T01:28:20;99764.25;;;11.49;61.50
39267;BME280;24967;51.154;13.812;2023-05-29T01:30:48;99761.50;;;11.41;61.90
39267;BME280;24967;51.154;13.812;2023-05-29T01:33:15;99766.53;;;11.44;62.06
39267;BME280;24967;51.154;13.812;2023-05-29T01:35:42;99774.13;;;11.39;62.04
39267;BME280;24967;51.154;13.812;2023-05-29T01:38:09;99763.09;;;11.34;62.08
39267;BME280;24967;51.154;13.812;2023-05-29T01:40:35;99769.31;;;11.24;62.17
39267;BME280;24967;51.154;13.812;2023-05-29T01:43:02;99772.97;;;11.23;62.14
39267;BME280;24967;51.154;13.812;2023-05-29T01:45:30;99765.97;;;11.22;61.92
39267;BME280;24967;51.154;13.812;2023-05-29T01:47:57;99765.69;;;11.26;61.96
39267;BME280;24967;51.154;13.812;2023-05-29T01:50:24;99760.66;;;11.22;61.87
39267;BME280;24967;51.154;13.812;2023-05-29T01:52:52;99767.94;;;11.20;61.80
39267;BME280;24967;51.154;13.812;2023-05-29T01:55:18;99763.88;;;11.16;61.81
39267;BME280;24967;51.154;13.812;2023-05-29T01:57:45;99761.91;;;11.18;62.08
39267;BME280;24967;51.154;13.812;2023-05-29T02:00:13;99758.84;;;11.13;61.97
39267;BME280;24967;51.154;13.812;2023-05-29T02:02:43;99764.41;;;11.02;62.24
39267;BME280;24967;51.154;13.812;2023-05-29T02:05:10;99766.81;;;10.95;62.57
39267;BME280;24967;51.154;13.812;2023-05-29T02:07:36;99765.28;;;10.93;62.93
39267;BME280;24967;51.154;13.812;2023-05-29T02:10:03;99759.97;;;10.93;62.98
39267;BME280;24967;51.154;13.812;2023-05-29T02:12:31;99764.47;;;10.92;62.90
39267;BME280;24967;51.154;13.812;2023-05-29T02:14:58;99768.63;;;10.95;62.78
39267;BME280;24967;51.154;13.812;2023-05-29T02:17:24;99760.81;;;10.93;62.64
39267;BME280;24967;51.154;13.812;2023-05-29T02:19:52;99764.03;;;10.87;62.52
39267;BME280;24967;51.154;13.812;2023-05-29T02:22:18;99770.50;;;10.85;62.54
39267;BME280;24967;51.154;13.812;2023-05-29T02:24:45;99768.41;;;10.78;62.52
39267;BME280;24967;51.154;13.812;2023-05-29T02:27:11;99775.84;;;10.75;62.72
39267;BME280;24967;51.154;13.812;2023-05-29T02:29:37;99782.44;;;10.71;62.87
39267;BME280;24967;51.154;13.812;2023-05-29T02:32:04;99777.69;;;10.65;63.01
39267;BME280;24967;51.154;13.812;2023-05-29T02:34:31;99780.94;;;10.59;63.16
39267;BME280;24967;51.154;13.812;2023-05-29T02:36:58;99785.28;;;10.60;63.31
39267;BME280;24967;51.154;13.812;2023-05-29T02:39:26;99784.75;;;10.56;63.56
39267;BME280;24967;51.154;13.812;2023-05-29T02:41:52;99793.56;;;10.57;63.53
39267;BME280;24967;51.154;13.812;2023-05-29T02:44:19;99794.69;;;10.54;63.58
39267;BME280;24967;51.154;13.812;2023-05-29T02:46:45;99796.09;;;10.48;63.37
39267;BME280;24967;51.154;13.812;2023-05-29T02:49:12;99805.88;;;10.48;63.69
39267;BME280;24967;51.154;13.812;2023-05-29T02:51:38;99805.06;;;10.47;62.86
39267;BME280;24967;51.154;13.812;2023-05-29T02:54:06;99815.38;;;10.41;62.37
39267;BME280;24967;51.154;13.812;2023-05-29T02:56:32;99820.31;;;10.36;62.32
39267;BME280;24967;51.154;13.812;2023-05-29T02:58:59;99824.38;;;10.30;61.94
39267;BME280;24967;51.154;13.812;2023-05-29T03:01:26;99821.69;;;10.20;62.37
39267;BME280;24967;51.154;13.812;2023-05-29T03:03:57;99824.94;;;10.14;63.00
39267;BME280;24967;51.154;13.812;2023-05-29T03:06:24;99820.00;;;10.09;63.13
39267;BME280;24967;51.154;13.812;2023-05-29T03:08:51;99826.03;;;10.12;63.41
39267;BME280;24967;51.154;13.812;2023-05-29T03:11:18;99832.03;;;10.04;64.53
39267;BME280;24967;51.154;13.812;2023-05-29T03:13:48;99826.44;;;10.07;64.74
39267;BME280;24967;51.154;13.812;2023-05-29T03:16:15;99822.66;;;10.09;64.22
39267;BME280;24967;51.154;13.812;2023-05-29T03:18:41;99821.13;;;10.07;64.62
39267;BME280;24967;51.154;13.812;2023-05-29T03:21:08;99824.63;;;9.98;64.23
39267;BME280;24967;51.154;13.812;2023-05-29T03:23:35;99826.72;;;9.94;64.81
39267;BME280;24967;51.154;13.812;2023-05-29T03:26:02;99825.47;;;9.89;65.41
39267;BME280;24967;51.154;13.812;2023-05-29T03:28:30;99829.38;;;9.84;65.34
39267;BME280;24967;51.154;13.812;2023-05-29T03:30:56;99827.56;;;9.85;65.71
39267;BME280;24967;51.154;13.812;2023-05-29T03:33:23;99833.88;;;9.84;65.66
39267;BME280;24967;51.154;13.812;2023-05-29T03:35:49;99822.13;;;9.86;66.17
39267;BME280;24967;51.154;13.812;2023-05-29T03:38:16;99821.69;;;9.91;66.26
39267;BME280;24967;51.154;13.812;2023-05-29T03:40:42;99820.59;;;9.94;65.97
39267;BME280;24967;51.154;13.812;2023-05-29T03:43:08;99824.34;;;9.91;66.01
39267;BME280;24967;51.154;13.812;2023-05-29T03:45:36;99828.13;;;9.89;66.68
39267;BME280;24967;51.154;13.812;2023-05-29T03:48:03;99826.88;;;9.93;66.83
39267;BME280;24967;51.154;13.812;2023-05-29T03:50:29;99824.34;;;10.01;66.55
39267;BME280;24967;51.154;13.812;2023-05-29T03:52:56;99827.84;;;10.01;66.84
39267;BME280;24967;51.154;13.812;2023-05-29T03:55:22;99826.59;;;10.05;66.81
39267;BME280;24967;51.154;13.812;2023-05-29T03:57:49;99826.03;;;10.12;66.63
39267;BME280;24967;51.154;13.812;2023-05-29T04:00:15;99831.19;;;10.13;66.28
39267;BME280;24967;51.154;13.812;2023-05-29T04:02:44;99835.53;;;10.14;66.73
39267;BME280;24967;51.154;13.812;2023-05-29T04:05:13;99832.19;;;10.12;66.67
39267;BME280;24967;51.154;13.812;2023-05-29T04:07:39;99835.81;;;10.21;66.75
39267;BME280;24967;51.154;13.812;2023-05-29T04:10:07;99837.50;;;10.22;67.07
39267;BME280;24967;51.154;13.812;2023-05-29T04:12:34;99837.19;;;10.25;67.68
39267;BME280;24967;51.154;13.812;2023-05-29T04:15:00;99839.03;;;10.24;68.09
39267;BME280;24967;51.154;13.812;2023-05-29T04:17:27;99849.66;;;10.34;68.46
39267;BME280;24967;51.154;13.812;2023-05-29T04:19:55;99839.19;;;10.42;68.38
39267;BME280;24967;51.154;13.812;2023-05-29T04:22:21;99850.50;;;10.54;68.39
39267;BME280;24967;51.154;13.812;2023-05-29T04:24:48;99857.06;;;10.60;68.18
39267;BME280;24967;51.154;13.812;2023-05-29T04:27:14;99848.53;;;10.66;68.28
39267;BME280;24967;51.154;13.812;2023-05-29T04:29:41;99842.75;;;10.70;68.58
39267;BME280;24967;51.154;13.812;2023-05-29T04:32:08;99847.19;;;10.80;68.30
39267;BME280;24967;51.154;13.812;2023-05-29T04:34:36;99854.91;;;10.83;68.64
39267;BME280;24967;51.154;13.812;2023-05-29T04:37:05;99850.81;;;10.88;68.81
39267;BME280;24967;51.154;13.812;2023-05-29T04:39:32;99853.91;;;10.93;69.04
39267;BME280;24967;51.154;13.812;2023-05-29T04:41:58;99860.00;;;11.04;69.14
39267;BME280;24967;51.154;13.812;2023-05-29T04:44:25;99862.00;;;11.02;70.24
39267;BME280;24967;51.154;13.812;2023-05-29T04:46:52;99864.31;;;11.14;70.16
39267;BME280;24967;51.154;13.812;2023-05-29T04:49:19;99860.63;;;11.25;70.33
39267;BME280;24967;51.154;13.812;2023-05-29T04:51:45;99856.88;;;11.18;71.81
39267;BME280;24967;51.154;13.812;2023-05-29T04:54:13;99853.53;;;11.43;71.51
39267;BME280;24967;51.154;13.812;2023-05-29T04:56:40;99865.41;;;11.49;71.87
39267;BME280;24967;51.154;13.812;2023-05-29T04:59:06;99870.13;;;11.55;72.06
39267;BME280;24967;51.154;13.812;2023-05-29T05:01:33;99866.91;;;11.79;71.66
39267;BME280;24967;51.154;13.812;2023-05-29T05:03:59;99865.84;;;11.72;72.37
39267;BME280;24967;51.154;13.812;2023-05-29T05:06:26;99866.88;;;11.89;71.63
39267;BME280;24967;51.154;13.812;2023-05-29T05:08:55;99861.50;;;11.99;71.99
39267;BME280;24967;51.154;13.812;2023-05-29T05:11:23;99857.53;;;12.21;71.58
39267;BME280;24967;51.154;13.812;2023-05-29T05:13:50;99869.47;;;12.34;71.72
39267;BME280;24967;51.154;13.812;2023-05-29T05:16:16;99858.06;;;12.68;71.56
39267;BME280;24967;51.154;13.812;2023-05-29T05:18:43;99855.56;;;13.01;70.59
39267;BME280;24967;51.154;13.812;2023-05-29T05:21:10;99859.28;;;13.34;69.47
39267;BME280;24967;51.154;13.812;2023-05-29T05:23:36;99856.25;;;13.71;68.72
39267;BME280;24967;51.154;13.812;2023-05-29T05:26:03;99851.97;;;14.44;68.15
39267;BME280;24967;51.154;13.812;2023-05-29T05:28:31;99857.00;;;15.35;63.22
39267;BME280;24967;51.154;13.812;2023-05-29T05:30:59;99852.91;;;16.33;61.28
39267;BME280;24967;51.154;13.812;2023-05-29T05:33:26;99858.53;;;17.44;58.24
39267;BME280;24967;51.154;13.812;2023-05-29T05:35:53;99855.34;;;18.49;55.88
39267;BME280;24967;51.154;13.812;2023-05-29T05:38:19;99855.25;;;19.27;51.04
39267;BME280;24967;51.154;13.812;2023-05-29T05:40:46;99856.00;;;20.10;50.58
39267;BME280;24967;51.154;13.812;2023-05-29T05:43:12;99861.69;;;20.62;47.56
39267;BME280;24967;51.154;13.812;2023-05-29T05:45:40;99858.91;;;21.21;45.97
39267;BME280;24967;51.154;13.812;2023-05-29T05:48:07;99858.25;;;21.84;46.73
39267;BME280;24967;51.154;13.812;2023-05-29T05:50:33;99862.88;;;22.47;44.54
39267;BME280;24967;51.154;13.812;2023-05-29T05:53:00;99859.66;;;22.82;43.09
39267;BME280;24967;51.154;13.812;2023-05-29T05:55:26;99865.78;;;23.39;43.37
39267;BME280;24967;51.154;13.812;2023-05-29T05:57:53;99869.22;;;23.83;42.75
39267;BME280;24967;51.154;13.812;2023-05-29T06:00:21;99864.53;;;24.32;40.81
39267;BME280;24967;51.154;13.812;2023-05-29T06:02:49;99866.53;;;24.67;41.03
39267;BME280;24967;51.154;13.812;2023-05-29T06:05:16;99865.69;;;25.02;38.37
39267;BME280;24967;51.154;13.812;2023-05-29T06:07:43;99862.53;;;25.17;39.32
39267;BME280;24967;51.154;13.812;2023-05-29T06:10:09;99865.84;;;25.30;38.36
39267;BME280;24967;51.154;13.812;2023-05-29T06:12:36;99865.06;;;25.47;39.49
39267;BME280;24967;51.154;13.812;2023-05-29T06:15:03;99868.44;;;25.66;37.63
39267;BME280;24967;51.154;13.812;2023-05-29T06:17:30;99867.47;;;25.72;37.75
39267;BME280;24967;51.154;13.812;2023-05-29T06:19:59;99872.69;;;25.85;38.30
39267;BME280;24967;51.154;13.812;2023-05-29T06:22:26;99873.13;;;25.94;36.64
39267;BME280;24967;51.154;13.812;2023-05-29T06:24:52;99877.41;;;25.78;36.01
39267;BME280;24967;51.154;13.812;2023-05-29T06:27:18;99873.47;;;25.57;36.50
39267;BME280;24967;51.154;13.812;2023-05-29T06:29:45;99868.06;;;25.33;35.26
39267;BME280;24967;51.154;13.812;2023-05-29T06:32:11;99870.19;;;25.31;35.87
39267;BME280;24967;51.154;13.812;2023-05-29T06:34:38;99878.13;;;25.45;37.09
39267;BME280;24967;51.154;13.812;2023-05-29T06:37:06;99874.66;;;25.49;34.10
39267;BME280;24967;51.154;13.812;2023-05-29T06:39:32;99870.53;;;25.47;34.66
39267;BME280;24967;51.154;13.812;2023-05-29T06:41:59;99876.47;;;25.32;35.51
39267;BME280;24967;51.154;13.812;2023-05-29T06:44:26;99880.72;;;25.40;36.61
39267;BME280;24967;51.154;13.812;2023-05-29T06:46:52;99878.34;;;25.43;36.12
39267;BME280;24967;51.154;13.812;2023-05-29T06:49:19;99881.53;;;25.40;36.21
39267;BME280;24967;51.154;13.812;2023-05-29T06:51:45;99883.00;;;25.19;37.25
39267;BME280;24967;51.154;13.812;2023-05-29T06:54:13;99888.88;;;24.69;37.08
39267;BME280;24967;51.154;13.812;2023-05-29T06:56:40;99882.09;;;24.48;38.88
39267;BME280;24967;51.154;13.812;2023-05-29T06:59:06;99887.28;;;24.50;38.24
39267;BME280;24967;51.154;13.812;2023-05-29T07:01:33;99888.91;;;24.39;37.19
39267;BME280;24967;51.154;13.812;2023-05-29T07:03:59;99893.38;;;24.33;37.50
39267;BME280;24967;51.154;13.812;2023-05-29T07:06:26;99888.13;;;23.90;38.24
39267;BME280;24967;51.154;13.812;2023-05-29T07:08:52;99898.63;;;23.86;37.18
39267;BME280;24967;51.154;13.812;2023-05-29T07:11:20;99895.16;;;23.61;39.21
39267;BME280;24967;51.154;13.812;2023-05-29T07:13:46;99897.53;;;23.75;35.35
39267;BME280;24967;51.154;13.812;2023-05-29T07:16:13;99898.19;;;23.71;36.42
39267;BME280;24967;51.154;13.812;2023-05-29T07:18:39;99900.59;;;23.61;38.63
39267;BME280;24967;51.154;13.812;2023-05-29T07:21:06;99901.31;;;23.68;39.14
39267;BME280;24967;51.154;13.812;2023-05-29T07:23:32;99900.41;;;23.92;37.74
39267;BME280;24967;51.154;13.812;2023-05-29T07:25:59;99904.34;;;23.96;37.66
39267;BME280;24967;51.154;13.812;2023-05-29T07:28:27;99896.66;;;23.93;37.35
39267;BME280;24967;51.154;13.812;2023-05-29T07:30:53;99909.72;;;23.85;38.94
39267;BME280;24967;51.154;13.812;2023-05-29T07:33:19;99908.00;;;24.02;38.20
39267;BME280;24967;51.154;13.812;2023-05-29T07:35:46;99901.03;;;23.94;38.10
39267;BME280;24967;51.154;13.812;2023-05-29T07:38:12;99910.63;;;23.60;37.46
39267;BME280;24967;51.154;13.812;2023-05-29T07:40:39;99916.56;;;23.50;37.26
39267;BME280;24967;51.154;13.812;2023-05-29T07:43:06;99911.91;;;23.39;37.72
39267;BME280;24967;51.154;13.812;2023-05-29T07:45:34;99910.63;;;23.60;37.58
39267;BME280;24967;51.154;13.812;2023-05-29T07:48:01;99918.75;;;23.60;39.60
39267;BME280;24967;51.154;13.812;2023-05-29T07:50:28;99911.97;;;23.88;37.94
39267;BME280;24967;51.154;13.812;2023-05-29T07:52:54;99913.22;;;24.04;37.77
39267;BME280;24967;51.154;13.812;2023-05-29T07:55:21;99915.34;;;24.02;37.70
39267;BME280;24967;51.154;13.812;2023-05-29T07:57:47;99911.84;;;24.13;37.79
39267;BME280;24967;51.154;13.812;2023-05-29T08:00:15;99917.25;;;23.83;36.98
39267;BME280;24967;51.154;13.812;2023-05-29T08:02:43;99914.44;;;23.89;37.81
39267;BME280;24967;51.154;13.812;2023-05-29T08:05:10;99913.19;;;23.73;36.41
39267;BME280;24967;51.154;13.812;2023-05-29T08:07:36;99909.72;;;23.66;36.64
39267;BME280;24967;51.154;13.812;2023-05-29T08:10:11;99919.13;;;23.64;36.78
39267;BME280;24967;51.154;13.812;2023-05-29T08:12:37;99921.03;;;23.63;35.28
39267;BME280;24967;51.154;13.812;2023-05-29T08:15:04;99924.47;;;23.52;35.30
39267;BME280;24967;51.154;13.812;2023-05-29T08:17:31;99918.31;;;23.63;36.78
39267;BME280;24967;51.154;13.812;2023-05-29T08:19:59;99918.81;;;23.90;33.94
39267;BME280;24967;51.154;13.812;2023-05-29T08:22:28;99920.50;;;23.91;33.64
39267;BME280;24967;51.154;13.812;2023-05-29T08:24:55;99918.97;;;23.95;33.72
39267;BME280;24967;51.154;13.812;2023-05-29T08:27:23;99925.53;;;24.06;32.87
39267;BME280;24967;51.154;13.812;2023-05-29T08:29:49;99916.41;;;24.00;35.55
39267;BME280;24967;51.154;13.812;2023-05-29T08:32:16;99918.16;;;24.25;33.66
39267;BME280;24967;51.154;13.812;2023-05-29T08:34:42;99912.59;;;24.62;33.11
39267;BME280;24967;51.154;13.812;2023-05-29T08:37:12;99917.59;;;24.77;32.30
39267;BME280;24967;51.154;13.812;2023-05-29T08:39:38;99913.69;;;25.08;33.05
39267;BME280;24967;51.154;13.812;2023-05-29T08:42:07;99917.53;;;25.19;31.94
39267;BME280;24967;51.154;13.812;2023-05-29T08:44:39;99904.53;;;25.21;33.44
39267;BME280;24967;51.154;13.812;2023-05-29T08:47:07;99906.28;;;25.27;31.98
39267;BME280;24967;51.154;13.812;2023-05-29T08:49:40;99910.41;;;25.41;35.06
39267;BME280;24967;51.154;13.812;2023-05-29T08:52:10;99910.63;;;25.63;31.64
39267;BME280;24967;51.154;13.812;2023-05-29T08:54:39;99905.78;;;25.42;30.31
39267;BME280;24967;51.154;13.812;2023-05-29T08:57:08;99903.63;;;25.55;30.58
39267;BME280;24967;51.154;13.812;2023-05-29T08:59:36;99908.97;;;25.50;33.89
39267;BME280;24967;51.154;13.812;2023-05-29T09:02:03;99909.19;;;25.61;30.79
39267;BME280;24967;51.154;13.812;2023-05-29T09:04:30;99912.16;;;25.59;31.24
39267;BME280;24967;51.154;13.812;2023-05-29T09:06:57;99906.47;;;25.61;31.21
39267;BME280;24967;51.154;13.812;2023-05-29T09:09:24;99908.13;;;25.50;30.61
39267;BME280;24967;51.154;13.812;2023-05-29T09:11:53;99909.72;;;25.22;33.85
39267;BME280;24967;51.154;13.812;2023-05-29T09:14:33;99904.09;;;25.64;31.92
39267;BME280;24967;51.154;13.812;2023-05-29T09:17:01;99904.41;;;25.79;30.63
39267;BME280;24967;51.154;13.812;2023-05-29T09:19:39;99906.38;;;25.96;31.11
39267;BME280;24967;51.154;13.812;2023-05-29T09:22:07;99906.44;;;25.84;31.28
39267;BME280;24967;51.154;13.812;2023-05-29T09:24:36;99905.56;;;25.95;30.25
39267;BME280;24967;51.154;13.812;2023-05-29T09:27:09;99903.56;;;25.91;30.31
39267;BME280;24967;51.154;13.812;2023-05-29T09:29:38;99912.72;;;25.73;31.98
39267;BME280;24967;51.154;13.812;2023-05-29T09:32:07;99913.66;;;25.78;30.03
39267;BME280;24967;51.154;13.812;2023-05-29T09:34:34;99913.38;;;25.92;31.89
39267;BME280;24967;51.154;13.812;2023-05-29T09:37:01;99920.28;;;26.40;32.04
39267;BME280;24967;51.154;13.812;2023-05-29T09:39:33;99918.84;;;26.49;30.00
39267;BME280;24967;51.154;13.812;2023-05-29T09:41:59;99918.59;;;26.50;31.66
39267;BME280;24967;51.154;13.812;2023-05-29T09:44:27;99919.03;;;26.47;29.94
39267;BME280;24967;51.154;13.812;2023-05-29T09:46:58;99919.13;;;26.81;30.32
39267;BME280;24967;51.154;13.812;2023-05-29T09:49:25;99912.25;;;26.62;30.80
39267;BME280;24967;51.154;13.812;2023-05-29T09:51:53;99924.16;;;26.27;29.50
39267;BME280;24967;51.154;13.812;2023-05-29T09:54:19;99912.00;;;26.35;30.70
39267;BME280;24967;51.154;13.812;2023-05-29T09:56:46;99902.84;;;26.41;31.65
39267;BME280;24967;51.154;13.812;2023-05-29T09:59:13;99901.28;;;26.57;30.05
39267;BME280;24967;51.154;13.812;2023-05-29T10:01:43;99910.03;;;26.30;29.43
39267;BME280;24967;51.154;13.812;2023-05-29T10:04:10;99902.84;;;25.95;29.07
39267;BME280;24967;51.154;13.812;2023-05-29T10:06:41;99903.91;;;25.94;30.04
39267;BME280;24967;51.154;13.812;2023-05-29T10:09:12;99902.16;;;25.76;29.99
39267;BME280;24967;51.154;13.812;2023-05-29T10:11:41;99910.50;;;25.58;30.54
39267;BME280;24967;51.154;13.812;2023-05-29T10:14:09;99907.09;;;25.51;30.80
39267;BME280;24967;51.154;13.812;2023-05-29T10:16:43;99903.13;;;25.70;30.48
39267;BME280;24967;51.154;13.812;2023-05-29T10:19:12;99891.56;;;25.63;31.71
39267;BME280;24967;51.154;13.812;2023-05-29T10:21:40;99911.78;;;25.67;31.64
39267;BME280;24967;51.154;13.812;2023-05-29T10:24:07;99906.00;;;26.04;31.16
39267;BME280;24967;51.154;13.812;2023-05-29T10:26:35;99906.94;;;26.10;30.25
39267;BME280;24967;51.154;13.812;2023-05-29T10:29:07;99903.66;;;26.41;31.27
39267;BME280;24967;51.154;13.812;2023-05-29T10:31:42;99903.81;;;26.18;29.43
39267;BME280;24967;51.154;13.812;2023-05-29T10:34:20;99905.97;;;25.75;28.87
39267;BME280;24967;51.154;13.812;2023-05-29T10:36:56;99905.16;;;25.63;30.16
39267;BME280;24967;51.154;13.812;2023-05-29T10:39:26;99906.66;;;25.30;30.53
39267;BME280;24967;51.154;13.812;2023-05-29T10:41:52;99904.72;;;25.43;30.72
39267;BME280;24967;51.154;13.812;2023-05-29T10:44:39;99898.34;;;25.37;31.70
39267;BME280;24967;51.154;13.812;2023-05-29T10:47:08;99891.34;;;25.41;30.40
39267;BME280;24967;51.154;13.812;2023-05-29T10:49:38;99890.72;;;25.63;29.85
39267;BME280;24967;51.154;13.812;2023-05-29T10:52:05;99889.03;;;25.73;30.55
39267;BME280;24967;51.154;13.812;2023-05-29T10:54:50;99892.84;;;25.84;29.76
39267;BME280;24967;51.154;13.812;2023-05-29T10:57:18;99892.56;;;25.86;30.07
39267;BME280;24967;51.154;13.812;2023-05-29T10:59:46;99891.41;;;26.10;30.11
39267;BME280;24967;51.154;13.812;2023-05-29T11:02:17;99890.44;;;25.88;32.53
39267;BME280;24967;51.154;13.812;2023-05-29T11:05:06;99896.56;;;25.95;31.21
39267;BME280;24967;51.154;13.812;2023-05-29T11:07:55;99884.03;;;25.94;32.87
39267;BME280;24967;51.154;13.812;2023-05-29T11:10:42;99873.09;;;26.22;33.25
39267;BME280;24967;51.154;13.812;2023-05-29T11:13:10;99874.63;;;26.81;33.16
39267;BME280;24967;51.154;13.812;2023-05-29T11:15:37;99877.69;;;27.01;32.64
39267;BME280;24967;51.154;13.812;2023-05-29T11:18:07;99875.44;;;26.98;29.42
39267;BME280;24967;51.154;13.812;2023-05-29T11:20:41;99880.41;;;27.01;29.34
39267;BME280;24967;51.154;13.812;2023-05-29T11:23:14;99880.91;;;27.15;29.19
39267;BME280;24967;51.154;13.812;2023-05-29T11:25:44;99872.84;;;26.69;28.83
39267;BME280;24967;51.154;13.812;2023-05-29T11:28:11;99878.28;;;26.53;30.42
39267;BME280;24967;51.154;13.812;2023-05-29T11:30:41;99874.47;;;26.54;29.07
39267;BME280;24967;51.154;13.812;2023-05-29T11:33:08;99868.78;;;26.89;29.57
39267;BME280;24967;51.154;13.812;2023-05-29T11:35:42;99855.84;;;27.01;29.72
39267;BME280;24967;51.154;13.812;2023-05-29T11:38:09;99867.59;;;27.02;29.08
39267;BME280;24967;51.154;13.812;2023-05-29T11:40:36;99863.72;;;27.14;29.43
39267;BME280;24967;51.154;13.812;2023-05-29T11:43:04;99876.63;;;27.02;29.36
39267;BME280;24967;51.154;13.812;2023-05-29T11:45:32;99873.91;;;27.02;29.27
39267;BME280;24967;51.154;13.812;2023-05-29T11:48:00;99871.59;;;26.60;29.51
39267;BME280;24967;51.154;13.812;2023-05-29T11:50:28;99867.06;;;26.66;29.87
39267;BME280;24967;51.154;13.812;2023-05-29T11:52:59;99869.50;;;26.34;31.62
39267;BME280;24967;51.154;13.812;2023-05-29T11:55:27;99866.56;;;26.52;30.03
39267;BME280;24967;51.154;13.812;2023-05-29T11:57:56;99861.72;;;26.25;33.29
39267;BME280;24967;51.154;13.812;2023-05-29T12:00:33;99858.19;;;26.42;31.64
39267;BME280;24967;51.154;13.812;2023-05-29T12:03:00;99860.53;;;26.50;29.93
39267;BME280;24967;51.154;13.812;2023-05-29T12:05:32;99867.16;;;26.54;29.79
39267;BME280;24967;51.154;13.812;2023-05-29T12:08:17;99865.81;;;26.73;28.97
39267;BME280;24967;51.154;13.812;2023-05-29T12:10:49;99864.72;;;26.91;31.06
39267;BME280;24967;51.154;13.812;2023-05-29T12:13:19;99866.63;;;26.91;28.90
39267;BME280;24967;51.154;13.812;2023-05-29T12:15:49;99853.91;;;26.97;29.42
39267;BME280;24967;51.154;13.812;2023-05-29T12:18:19;99850.94;;;26.81;28.38
39267;BME280;24967;51.154;13.812;2023-05-29T12:20:46;99838.56;;;27.12;28.79
39267;BME280;24967;51.154;13.812;2023-05-29T12:23:19;99843.16;;;27.29;28.34
39267;BME280;24967;51.154;13.812;2023-05-29T12:25:50;99838.44;;;27.68;29.89
39267;BME280;24967;51.154;13.812;2023-05-29T12:28:22;99844.50;;;27.48;28.08
39267;BME280;24967;51.154;13.812;2023-05-29T12:30:49;99853.09;;;27.79;28.01
39267;BME280;24967;51.154;13.812;2023-05-29T12:33:29;99836.75;;;27.84;28.00
39267;BME280;24967;51.154;13.812;2023-05-29T12:36:08;99840.88;;;27.43;28.89
39267;BME280;24967;51.154;13.812;2023-05-29T12:38:48;99838.28;;;27.53;29.27
39267;BME280;24967;51.154;13.812;2023-05-29T12:41:35;99843.31;;;27.39;28.54
39267;BME280;24967;51.154;13.812;2023-05-29T12:44:23;99839.63;;;27.28;28.92
39267;BME280;24967;51.154;13.812;2023-05-29T12:46:58;99836.91;;;27.11;29.10
39267;BME280;24967;51.154;13.812;2023-05-29T12:49:35;99844.00;;;26.90;29.88
39267;BME280;24967;51.154;13.812;2023-05-29T12:52:19;99843.09;;;26.85;29.48
39267;BME280;24967;51.154;13.812;2023-05-29T12:54:54;99844.81;;;26.74;31.43
39267;BME280;24967;51.154;13.812;2023-05-29T12:57:25;99851.03;;;26.69;30.83